createdAt,value
2019-01-13T00:01:43.036Z,4.60
2019-01-13T00:04:50.022Z,4.60
2019-01-13T00:07:57.257Z,4.50
2019-01-13T00:11:04.361Z,4.50
2019-01-13T00:14:11.243Z,4.60
2019-01-13T00:17:18.424Z,4.50
2019-01-13T00:20:25.613Z,4.40
2019-01-13T00:23:32.601Z,4.50
2019-01-13T00:26:39.618Z,4.50
2019-01-13T00:29:46.635Z,4.60
2019-01-13T00:32:53.690Z,4.60
2019-01-13T00:36:01.754Z,4.60
2019-01-13T00:39:09.331Z,4.60
2019-01-13T00:42:16.268Z,4.70
2019-01-13T00:45:23.411Z,4.60
2019-01-13T00:48:31.170Z,4.60
2019-01-13T00:51:38.184Z,4.50
2019-01-13T00:54:45.143Z,4.60
2019-01-13T00:57:52.377Z,4.50
2019-01-13T01:00:59.338Z,4.50
2019-01-13T01:04:06.333Z,4.60
2019-01-13T01:07:13.248Z,4.50
2019-01-13T01:10:21.337Z,4.60
2019-01-13T01:13:28.370Z,4.70
2019-01-13T01:16:35.360Z,4.50
2019-01-13T01:19:42.332Z,4.60
2019-01-13T01:22:49.516Z,4.60
2019-01-13T01:25:58.329Z,4.70
2019-01-13T01:29:05.392Z,4.80
2019-01-13T01:32:12.355Z,4.80
2019-01-13T01:35:19.500Z,4.70
2019-01-13T01:38:26.379Z,4.80
2019-01-13T01:41:33.278Z,4.80
2019-01-13T01:44:40.235Z,4.70
2019-01-13T01:47:47.101Z,4.70
2019-01-13T01:50:54.164Z,4.70
2019-01-13T01:54:01.133Z,4.60
2019-01-13T01:57:08.116Z,4.50
2019-01-13T02:00:26.985Z,4.50
2019-01-13T02:03:33.958Z,4.50
2019-01-13T02:06:40.940Z,4.60
2019-01-13T02:09:47.978Z,4.60
2019-01-13T02:12:55.924Z,4.60
2019-01-13T02:16:02.879Z,4.60
2019-01-13T02:19:09.870Z,4.60
2019-01-13T02:22:16.839Z,4.60
2019-01-13T02:25:26.414Z,4.60
2019-01-13T02:28:33.265Z,4.60
2019-01-13T02:31:40.193Z,4.70
2019-01-13T02:34:47.096Z,4.70
2019-01-13T02:37:54.078Z,4.70
2019-01-13T02:41:03.715Z,4.80
2019-01-13T02:44:10.699Z,4.80
2019-01-13T02:47:17.913Z,4.70
2019-01-13T02:50:25.102Z,4.70
2019-01-13T02:53:32.131Z,4.70
2019-01-13T02:56:39.084Z,4.70
2019-01-13T02:59:46.079Z,4.80
2019-01-13T03:02:53.159Z,4.90
2019-01-13T03:06:00.038Z,4.80
2019-01-13T03:09:08.668Z,4.80
2019-01-13T03:12:15.783Z,4.80
2019-01-13T03:15:24.462Z,4.90
2019-01-13T03:18:31.546Z,4.90
2019-01-13T03:21:38.536Z,5.00
2019-01-13T03:24:45.626Z,5.00
2019-01-13T03:27:52.888Z,5.00
2019-01-13T03:31:11.307Z,5.00
2019-01-13T03:34:10.763Z,5.00
2019-01-13T03:37:17.598Z,4.90
2019-01-13T03:40:27.440Z,4.90
2019-01-13T03:43:34.344Z,4.90
2019-01-13T03:46:41.421Z,5.00
2019-01-13T03:49:48.402Z,4.90
2019-01-13T03:52:55.434Z,4.90
2019-01-13T03:56:04.884Z,4.80
2019-01-13T03:59:11.847Z,4.80
2019-01-13T04:02:18.970Z,4.80
2019-01-13T04:05:26.086Z,4.70
2019-01-13T04:08:33.229Z,4.60
2019-01-13T04:11:40.147Z,4.60
2019-01-13T04:14:47.154Z,4.60
2019-01-13T04:17:54.099Z,4.60
2019-01-13T04:21:01.030Z,4.50
2019-01-13T04:24:08.265Z,4.50
2019-01-13T04:27:15.308Z,4.50
2019-01-13T04:30:22.344Z,4.60
2019-01-13T04:33:29.383Z,4.70
2019-01-13T04:36:36.409Z,4.70
2019-01-13T04:39:43.329Z,4.80
2019-01-13T04:42:50.454Z,4.90
2019-01-13T04:45:57.322Z,4.80
2019-01-13T04:49:04.534Z,4.80
2019-01-13T04:52:11.571Z,4.90
2019-01-13T04:55:18.521Z,4.90
2019-01-13T04:58:25.683Z,5.00
2019-01-13T05:01:34.709Z,5.00
2019-01-13T05:04:41.257Z,5.00
2019-01-13T05:07:48.185Z,5.00
2019-01-13T05:10:57.302Z,5.00
2019-01-13T05:14:04.182Z,5.00
2019-01-13T05:17:11.295Z,5.00
2019-01-13T05:20:19.941Z,5.00
2019-01-13T05:23:29.260Z,5.00
2019-01-13T05:26:35.374Z,5.00
2019-01-13T05:29:42.497Z,4.90
2019-01-13T05:32:49.482Z,5.00
2019-01-13T05:35:56.684Z,4.80
2019-01-13T05:39:05.330Z,4.80
2019-01-13T05:42:12.219Z,4.90
2019-01-13T05:45:20.443Z,4.90
2019-01-13T05:48:27.444Z,4.90
2019-01-13T05:51:34.593Z,4.90
2019-01-13T05:54:41.491Z,4.90
2019-01-13T05:57:48.479Z,4.90
2019-01-13T06:00:56.668Z,4.90
2019-01-13T06:04:03.743Z,4.90
2019-01-13T06:07:10.661Z,4.90
2019-01-13T06:10:18.465Z,4.90
2019-01-13T06:13:26.603Z,4.90
2019-01-13T06:16:33.618Z,5.00
2019-01-13T06:19:40.572Z,5.00
2019-01-13T06:22:47.594Z,5.10
2019-01-13T06:25:54.506Z,5.10
2019-01-13T06:29:01.750Z,5.10
2019-01-13T06:32:08.743Z,5.30
2019-01-13T06:35:15.911Z,5.30
2019-01-13T06:38:22.801Z,5.20
2019-01-13T06:41:31.776Z,5.30
2019-01-13T06:44:38.607Z,5.30
2019-01-13T06:47:45.675Z,5.30
2019-01-13T06:50:52.787Z,5.30
2019-01-13T06:53:59.699Z,5.40
2019-01-13T06:57:06.751Z,5.40
2019-01-13T07:00:16.925Z,5.40
2019-01-13T07:03:23.793Z,5.30
2019-01-13T07:06:31.638Z,5.50
2019-01-13T07:09:38.593Z,5.60
2019-01-13T07:12:45.552Z,5.60
2019-01-13T07:15:52.570Z,5.60
2019-01-13T07:19:00.708Z,5.70
2019-01-13T07:22:07.715Z,5.70
2019-01-13T07:25:14.606Z,5.70
2019-01-13T07:28:21.489Z,5.70
2019-01-13T07:31:28.408Z,5.80
2019-01-13T07:34:36.273Z,5.70
2019-01-13T07:37:43.484Z,5.70
2019-01-13T07:40:50.614Z,5.70
2019-01-13T07:43:57.911Z,5.70
2019-01-13T07:47:06.100Z,5.80
2019-01-13T07:50:14.888Z,5.70
2019-01-13T07:53:22.557Z,5.70
2019-01-13T07:56:30.609Z,5.70
2019-01-13T07:59:37.593Z,5.70
2019-01-13T08:02:44.962Z,5.70
2019-01-13T08:05:51.975Z,5.70
2019-01-13T08:09:01.284Z,5.70
2019-01-13T08:12:08.198Z,5.60
2019-01-13T08:15:18.298Z,5.50
2019-01-13T08:18:25.883Z,5.60
2019-01-13T08:21:33.179Z,5.70
2019-01-13T08:24:40.324Z,5.70
2019-01-13T08:27:47.254Z,5.70
2019-01-13T08:30:57.334Z,5.70
2019-01-13T08:34:04.258Z,5.80
2019-01-13T08:37:11.226Z,5.80
2019-01-13T08:40:22.962Z,5.80
2019-01-13T08:43:30.219Z,5.90
2019-01-13T08:46:42.695Z,5.80
2019-01-13T08:49:49.716Z,5.80
2019-01-13T08:52:56.586Z,5.80
2019-01-13T08:56:04.357Z,5.80
2019-01-13T08:59:11.574Z,5.80
2019-01-13T09:02:18.477Z,5.80
2019-01-13T09:05:25.826Z,5.70
2019-01-13T09:08:32.676Z,5.70
2019-01-13T09:11:39.548Z,5.80
2019-01-13T09:14:46.414Z,5.60
2019-01-13T09:17:53.316Z,5.60
2019-01-13T09:21:00.161Z,5.50
2019-01-13T09:24:07.057Z,5.60
2019-01-13T09:27:14.846Z,5.70
2019-01-13T09:30:23.744Z,5.70
2019-01-13T09:33:30.549Z,5.80
2019-01-13T09:36:37.383Z,5.80
2019-01-13T09:39:44.382Z,5.80
2019-01-13T09:42:51.436Z,5.80
2019-01-13T09:45:58.362Z,5.80
2019-01-13T09:49:05.266Z,5.80
2019-01-13T09:52:12.139Z,5.90
2019-01-13T09:55:20.030Z,5.80
2019-01-13T09:58:27.027Z,5.80
2019-01-13T10:01:33.920Z,5.80
2019-01-13T10:04:40.788Z,5.80
2019-01-13T10:07:48.745Z,5.80
2019-01-13T10:10:55.645Z,5.90
2019-01-13T10:14:02.489Z,5.90
2019-01-13T10:17:09.460Z,6.00
2019-01-13T10:20:17.544Z,6.00
2019-01-13T10:23:24.398Z,6.00
2019-01-13T10:26:31.278Z,5.90
2019-01-13T10:29:38.191Z,6.00
2019-01-13T10:32:46.656Z,6.00
2019-01-13T10:35:54.393Z,6.10
2019-01-13T10:39:01.426Z,6.20
2019-01-13T10:42:08.444Z,6.20
2019-01-13T10:45:15.633Z,6.20
2019-01-13T10:48:24.160Z,6.20
2019-01-13T10:51:31.291Z,6.10
2019-01-13T10:54:38.523Z,6.20
2019-01-13T10:57:45.675Z,6.20
2019-01-13T11:00:54.662Z,6.20
2019-01-13T11:04:01.702Z,6.20
2019-01-13T11:07:08.848Z,6.20
2019-01-13T11:10:16.015Z,6.30
2019-01-13T11:13:23.053Z,6.30
2019-01-13T11:16:29.912Z,6.30
2019-01-13T11:19:37.224Z,6.50
2019-01-13T11:22:44.310Z,6.50
2019-01-13T11:25:51.355Z,6.50
2019-01-13T11:28:59.615Z,6.60
2019-01-13T11:32:06.631Z,6.70
2019-01-13T11:35:14.256Z,6.70
2019-01-13T11:38:21.316Z,6.80
2019-01-13T11:41:28.385Z,6.80
2019-01-13T11:44:35.657Z,6.90
2019-01-13T11:47:42.802Z,6.90
2019-01-13T11:50:49.916Z,6.90
2019-01-13T11:53:57.100Z,6.80
2019-01-13T11:57:06.789Z,6.90
2019-01-13T12:00:19.556Z,6.90
2019-01-13T12:03:26.566Z,7.00
2019-01-13T12:06:33.558Z,6.90
2019-01-13T12:09:40.621Z,6.80
2019-01-13T12:12:47.848Z,6.90
2019-01-13T12:15:54.868Z,6.80
2019-01-13T12:19:01.893Z,6.90
2019-01-13T12:22:08.937Z,7.00
2019-01-13T12:25:16.581Z,7.00
2019-01-13T12:28:23.675Z,7.10
2019-01-13T12:31:32.314Z,7.10
2019-01-13T12:34:41.594Z,7.10
2019-01-13T12:37:48.571Z,7.10
2019-01-13T12:40:55.677Z,7.00
2019-01-13T12:44:02.747Z,7.00
2019-01-13T12:47:11.038Z,7.00
2019-01-13T12:50:23.753Z,7.00
2019-01-13T12:53:30.826Z,7.00
2019-01-13T12:56:37.941Z,7.00
2019-01-13T12:59:46.443Z,7.00
2019-01-13T13:02:53.700Z,7.00
2019-01-13T13:06:00.744Z,7.10
2019-01-13T13:09:09.930Z,7.20
2019-01-13T13:12:16.914Z,7.20
2019-01-13T13:15:23.820Z,7.20
2019-01-13T13:18:31.288Z,7.20
2019-01-13T13:21:38.409Z,7.30
2019-01-13T13:24:45.448Z,7.40
2019-01-13T13:27:53.395Z,7.50
2019-01-13T13:31:00.339Z,7.50
2019-01-13T13:34:07.311Z,7.50
2019-01-13T13:37:14.555Z,7.50
2019-01-13T13:40:22.763Z,7.50
2019-01-13T13:43:34.199Z,7.50
2019-01-13T13:46:41.224Z,7.50
2019-01-13T13:49:48.319Z,7.50
2019-01-13T13:52:55.630Z,7.60
2019-01-13T13:56:02.726Z,7.60
2019-01-13T13:59:09.726Z,7.60
2019-01-13T14:02:16.816Z,7.60
2019-01-13T14:05:25.700Z,7.60
2019-01-13T14:08:33.025Z,7.60
2019-01-13T14:11:40.165Z,7.60
2019-01-13T14:14:47.279Z,7.60
2019-01-13T14:17:56.246Z,7.60
2019-01-13T14:21:03.231Z,7.60
2019-01-13T14:24:10.470Z,7.70
2019-01-13T14:27:17.669Z,7.70
2019-01-13T14:30:27.391Z,7.70
2019-01-13T14:33:34.764Z,7.80
2019-01-13T14:36:41.923Z,7.80
2019-01-13T14:39:49.080Z,7.80
2019-01-13T14:42:56.151Z,7.70
2019-01-13T14:46:03.413Z,7.80
2019-01-13T14:49:10.548Z,7.80
2019-01-13T14:52:17.613Z,7.80
2019-01-13T14:55:24.911Z,7.80
2019-01-13T14:58:33.058Z,7.90
2019-01-13T15:01:40.118Z,7.90
2019-01-13T15:04:47.194Z,7.90
2019-01-13T15:07:54.263Z,7.90
2019-01-13T15:11:01.337Z,7.90
2019-01-13T15:14:08.573Z,7.80
2019-01-13T15:17:15.508Z,7.80
2019-01-13T15:20:23.314Z,7.80
2019-01-13T15:23:30.362Z,7.80
2019-01-13T15:26:37.557Z,7.90
2019-01-13T15:29:44.589Z,7.90
2019-01-13T15:32:51.796Z,7.80
2019-01-13T15:35:58.987Z,7.80
2019-01-13T15:39:10.813Z,7.80
2019-01-13T15:42:17.893Z,7.80
2019-01-13T15:45:24.891Z,7.80
2019-01-13T15:48:32.064Z,7.80
2019-01-13T15:51:39.058Z,7.80
2019-01-13T15:54:46.208Z,7.70
2019-01-13T15:57:53.490Z,7.70
2019-01-13T16:01:00.694Z,7.70
2019-01-13T16:04:14.371Z,7.70
2019-01-13T16:07:16.431Z,7.70
2019-01-13T16:10:24.399Z,7.80
2019-01-13T16:13:31.536Z,7.80
2019-01-13T16:16:38.599Z,7.90
2019-01-13T16:19:46.733Z,7.80
2019-01-13T16:22:53.641Z,7.80
2019-01-13T16:26:01.831Z,7.80
2019-01-13T16:29:12.109Z,7.80
2019-01-13T16:32:20.244Z,7.80
2019-01-13T16:35:27.649Z,7.90
2019-01-13T16:38:34.704Z,7.80
2019-01-13T16:41:41.676Z,7.80
2019-01-13T16:44:48.764Z,7.80
2019-01-13T16:47:55.753Z,7.80
2019-01-13T16:51:02.809Z,7.80
2019-01-13T16:54:09.885Z,7.80
2019-01-13T16:57:16.891Z,7.80
2019-01-13T17:00:28.814Z,7.90
2019-01-13T17:03:35.831Z,7.90
2019-01-13T17:06:42.772Z,7.90
2019-01-13T17:09:49.838Z,7.90
2019-01-13T17:12:56.955Z,8.00
2019-01-13T17:16:04.086Z,7.90
2019-01-13T17:19:11.084Z,7.90
2019-01-13T17:22:18.425Z,7.90
2019-01-13T17:25:26.827Z,7.90
2019-01-13T17:28:33.962Z,7.90
2019-01-13T17:31:41.103Z,8.00
2019-01-13T17:34:48.027Z,7.90
2019-01-13T17:37:55.028Z,8.10
2019-01-13T17:41:02.113Z,8.00
2019-01-13T17:44:09.137Z,7.90
2019-01-13T17:47:16.054Z,7.80
2019-01-13T17:50:24.187Z,7.80
2019-01-13T17:53:33.849Z,7.80
2019-01-13T17:56:41.044Z,7.70
2019-01-13T17:59:48.095Z,7.70
2019-01-13T18:02:55.440Z,7.70
2019-01-13T18:06:02.887Z,7.70
2019-01-13T18:09:10.345Z,7.70
2019-01-13T18:12:17.408Z,7.70
2019-01-13T18:15:24.499Z,7.70
2019-01-13T18:18:31.540Z,7.70
2019-01-13T18:21:38.549Z,7.70
2019-01-13T18:24:45.545Z,7.60
2019-01-13T18:27:52.628Z,7.50
2019-01-13T18:30:59.656Z,7.40
2019-01-13T18:34:08.864Z,7.30
2019-01-13T18:37:15.895Z,7.30
2019-01-13T18:40:23.086Z,7.30
2019-01-13T18:43:30.206Z,7.30
2019-01-13T18:46:38.329Z,7.20
2019-01-13T18:49:45.369Z,7.20
2019-01-13T18:52:58.706Z,7.10
2019-01-13T18:56:06.065Z,7.10
2019-01-13T18:59:14.505Z,6.90
2019-01-13T19:02:21.592Z,6.70
2019-01-13T19:05:28.538Z,6.50
2019-01-13T19:08:36.476Z,6.40
2019-01-13T19:11:50.138Z,6.40
2019-01-13T19:15:00.094Z,6.40
2019-01-13T19:18:07.258Z,6.30
2019-01-13T19:21:16.589Z,6.20
2019-01-13T19:24:23.708Z,6.20
2019-01-13T19:27:30.844Z,6.20
2019-01-13T19:30:37.945Z,6.20
2019-01-13T19:33:47.073Z,6.20
2019-01-13T19:36:54.117Z,6.20
2019-01-13T19:40:01.353Z,6.20
2019-01-13T19:43:08.564Z,6.20
2019-01-13T19:46:15.820Z,6.30
2019-01-13T19:49:22.954Z,6.20
2019-01-13T19:52:30.052Z,6.00
2019-01-13T19:55:37.280Z,5.80
2019-01-13T19:58:44.522Z,5.70
2019-01-13T20:01:53.452Z,5.60
2019-01-13T20:05:00.670Z,5.40
2019-01-13T20:08:07.613Z,5.40
2019-01-13T20:11:14.799Z,5.40
2019-01-13T20:14:22.884Z,5.30
2019-01-13T20:17:29.875Z,5.40
2019-01-13T20:20:36.783Z,5.30
2019-01-13T20:23:43.864Z,5.20
2019-01-13T20:26:51.022Z,5.20
2019-01-13T20:29:58.161Z,5.30
2019-01-13T20:33:06.507Z,5.30
2019-01-13T20:36:13.746Z,5.30
2019-01-13T20:39:20.873Z,5.20
2019-01-13T20:42:29.716Z,5.20
2019-01-13T20:45:39.497Z,5.30
2019-01-13T20:48:46.680Z,5.10
2019-01-13T20:51:53.748Z,5.20
2019-01-13T20:55:00.821Z,5.10
2019-01-13T20:58:07.919Z,5.20
2019-01-13T21:01:14.854Z,5.20
2019-01-13T21:04:21.857Z,5.20
2019-01-13T21:07:28.851Z,5.10
2019-01-13T21:10:35.953Z,5.10
2019-01-13T21:13:43.072Z,5.10
2019-01-13T21:16:50.182Z,5.20
2019-01-13T21:19:57.206Z,5.20
2019-01-13T21:23:04.262Z,5.10
2019-01-13T21:26:11.363Z,5.10
2019-01-13T21:29:18.341Z,5.10
2019-01-13T21:32:25.541Z,5.20
2019-01-13T21:35:34.118Z,5.20
2019-01-13T21:38:41.561Z,5.30
2019-01-13T21:41:48.636Z,5.30
2019-01-13T21:44:55.789Z,5.30
2019-01-13T21:48:03.166Z,5.30
2019-01-13T21:51:12.404Z,5.30
2019-01-13T21:54:19.574Z,5.20
2019-01-13T21:57:27.080Z,5.20
2019-01-13T22:00:34.125Z,5.30
2019-01-13T22:03:43.271Z,5.30
2019-01-13T22:06:50.473Z,5.30
2019-01-13T22:09:57.548Z,5.30
2019-01-13T22:13:05.037Z,5.30
2019-01-13T22:16:14.416Z,5.40
2019-01-13T22:19:21.524Z,5.40
2019-01-13T22:22:28.654Z,5.50
2019-01-13T22:25:35.756Z,5.50
2019-01-13T22:28:45.534Z,5.50
2019-01-13T22:31:53.498Z,5.50
2019-01-13T22:35:00.870Z,5.50
2019-01-13T22:38:07.915Z,5.50
2019-01-13T22:41:15.976Z,5.50
2019-01-13T22:44:23.058Z,5.50
2019-01-13T22:47:30.147Z,5.40
2019-01-13T22:50:37.259Z,5.50
2019-01-13T22:53:44.393Z,5.50
2019-01-13T22:56:51.422Z,5.50
2019-01-13T22:59:58.573Z,5.50
2019-01-13T23:03:05.601Z,5.50
2019-01-13T23:06:12.914Z,5.50
2019-01-13T23:09:21.844Z,5.50
2019-01-13T23:12:28.936Z,5.50
2019-01-13T23:15:36.092Z,5.50
2019-01-13T23:18:43.215Z,5.50
2019-01-13T23:21:50.299Z,5.50
2019-01-13T23:24:57.374Z,5.50
2019-01-13T23:28:04.564Z,5.50
2019-01-13T23:31:11.584Z,5.50
2019-01-13T23:34:18.709Z,5.50
2019-01-13T23:37:26.101Z,5.60
2019-01-13T23:40:33.216Z,5.50
2019-01-13T23:43:40.367Z,5.50
2019-01-13T23:46:47.594Z,5.60
2019-01-13T23:49:54.729Z,5.60
2019-01-13T23:53:01.844Z,5.60
2019-01-13T23:56:08.870Z,5.60
2019-01-13T23:59:16.020Z,5.60
